sensor_id;sensor_type;location;lat;lon;timestamp;P1;durP1;ratioP1;P2;durP2;ratioP2
49223;SDS011;35050;51.316;5.994;2023-06-22T00:00:49;1.30;;;1.20;;
49223;SDS011;35050;51.316;5.994;2023-06-22T00:03:15;1.80;;;1.20;;
49223;SDS011;35050;51.316;5.994;2023-06-22T00:05:45;1.70;;;1.40;;
49223;SDS011;35050;51.316;5.994;2023-06-22T00:08:11;1.65;;;1.50;;
49223;SDS011;35050;51.316;5.994;2023-06-22T00:10:36;1.20;;;1.10;;
49223;SDS011;35050;51.316;5.994;2023-06-22T00:13:02;1.30;;;1.20;;
49223;SDS011;35050;51.316;5.994;2023-06-22T00:15:28;1.40;;;1.30;;
49223;SDS011;35050;51.316;5.994;2023-06-22T00:17:54;2.35;;;1.50;;
49223;SDS011;35050;51.316;5.994;2023-06-22T00:20:19;1.90;;;1.75;;
49223;SDS011;35050;51.316;5.994;2023-06-22T00:22:45;3.15;;;1.40;;
49223;SDS011;35050;51.316;5.994;2023-06-22T00:25:11;1.83;;;1.52;;
49223;SDS011;35050;51.316;5.994;2023-06-22T00:27:36;2.67;;;1.42;;
49223;SDS011;35050;51.316;5.994;2023-06-22T00:30:02;1.70;;;1.60;;
49223;SDS011;35050;51.316;5.994;2023-06-22T00:32:28;1.50;;;1.40;;
49223;SDS011;35050;51.316;5.994;2023-06-22T00:34:54;1.58;;;1.40;;
49223;SDS011;35050;51.316;5.994;2023-06-22T00:37:20;1.98;;;1.83;;
49223;SDS011;35050;51.316;5.994;2023-06-22T00:39:51;1.88;;;1.75;;
49223;SDS011;35050;51.316;5.994;2023-06-22T00:42:17;2.03;;;1.90;;
49223;SDS011;35050;51.316;5.994;2023-06-22T00:44:42;1.90;;;1.70;;
49223;SDS011;35050;51.316;5.994;2023-06-22T00:47:09;4.07;;;1.90;;
49223;SDS011;35050;51.316;5.994;2023-06-22T00:49:37;2.00;;;1.80;;
49223;SDS011;35050;51.316;5.994;2023-06-22T00:52:03;1.67;;;1.58;;
49223;SDS011;35050;51.316;5.994;2023-06-22T00:54:34;2.13;;;1.88;;
49223;SDS011;35050;51.316;5.994;2023-06-22T00:57:01;3.42;;;2.50;;
49223;SDS011;35050;51.316;5.994;2023-06-22T00:59:27;2.75;;;2.17;;
49223;SDS011;35050;51.316;5.994;2023-06-22T01:01:53;2.10;;;1.90;;
49223;SDS011;35050;51.316;5.994;2023-06-22T01:04:18;1.92;;;1.77;;
49223;SDS011;35050;51.316;5.994;2023-06-22T01:06:45;2.90;;;1.90;;
49223;SDS011;35050;51.316;5.994;2023-06-22T01:09:21;2.25;;;2.05;;
49223;SDS011;35050;51.316;5.994;2023-06-22T01:12:03;2.38;;;2.17;;
49223;SDS011;35050;51.316;5.994;2023-06-22T01:14:46;2.78;;;2.15;;
49223;SDS011;35050;51.316;5.994;2023-06-22T01:17:17;2.42;;;2.22;;
49223;SDS011;35050;51.316;5.994;2023-06-22T01:19:46;2.97;;;2.20;;
49223;SDS011;35050;51.316;5.994;2023-06-22T01:22:20;2.70;;;2.33;;
49223;SDS011;35050;51.316;5.994;2023-06-22T01:24:51;3.92;;;2.53;;
49223;SDS011;35050;51.316;5.994;2023-06-22T01:27:56;3.00;;;2.40;;
49223;SDS011;35050;51.316;5.994;2023-06-22T01:30:30;2.50;;;2.03;;
49223;SDS011;35050;51.316;5.994;2023-06-22T01:33:00;2.97;;;2.58;;
49223;SDS011;35050;51.316;5.994;2023-06-22T01:35:28;2.70;;;2.50;;
49223;SDS011;35050;51.316;5.994;2023-06-22T01:37:55;2.45;;;2.15;;
49223;SDS011;35050;51.316;5.994;2023-06-22T01:40:21;2.38;;;2.08;;
49223;SDS011;35050;51.316;5.994;2023-06-22T01:42:48;3.28;;;2.97;;
49223;SDS011;35050;51.316;5.994;2023-06-22T01:45:14;3.05;;;2.50;;
49223;SDS011;35050;51.316;5.994;2023-06-22T01:47:41;3.50;;;3.13;;
49223;SDS011;35050;51.316;5.994;2023-06-22T01:50:07;3.28;;;2.97;;
49223;SDS011;35050;51.316;5.994;2023-06-22T01:52:34;2.45;;;2.25;;
49223;SDS011;35050;51.316;5.994;2023-06-22T01:55:00;3.22;;;2.63;;
49223;SDS011;35050;51.316;5.994;2023-06-22T01:57:26;2.83;;;2.58;;
49223;SDS011;35050;51.316;5.994;2023-06-22T01:59:54;4.05;;;3.30;;
49223;SDS011;35050;51.316;5.994;2023-06-22T02:02:36;2.83;;;2.63;;
49223;SDS011;35050;51.316;5.994;2023-06-22T02:05:08;3.15;;;2.78;;
49223;SDS011;35050;51.316;5.994;2023-06-22T02:07:41;3.47;;;3.15;;
49223;SDS011;35050;51.316;5.994;2023-06-22T02:10:11;4.15;;;2.97;;
49223;SDS011;35050;51.316;5.994;2023-06-22T02:12:40;3.90;;;2.95;;
49223;SDS011;35050;51.316;5.994;2023-06-22T02:15:08;4.47;;;3.90;;
49223;SDS011;35050;51.316;5.994;2023-06-22T02:17:35;3.95;;;3.55;;
49223;SDS011;35050;51.316;5.994;2023-06-22T02:20:02;3.85;;;3.17;;
49223;SDS011;35050;51.316;5.994;2023-06-22T02:22:33;3.95;;;3.55;;
49223;SDS011;35050;51.316;5.994;2023-06-22T02:24:59;4.38;;;3.60;;
49223;SDS011;35050;51.316;5.994;2023-06-22T02:27:25;3.55;;;3.25;;
49223;SDS011;35050;51.316;5.994;2023-06-22T02:29:50;3.67;;;3.28;;
49223;SDS011;35050;51.316;5.994;2023-06-22T02:32:16;3.88;;;2.97;;
49223;SDS011;35050;51.316;5.994;2023-06-22T02:34:42;3.92;;;3.08;;
49223;SDS011;35050;51.316;5.994;2023-06-22T02:37:12;4.65;;;3.70;;
49223;SDS011;35050;51.316;5.994;2023-06-22T02:39:39;4.00;;;3.08;;
49223;SDS011;35050;51.316;5.994;2023-06-22T02:42:06;3.17;;;2.90;;
49223;SDS011;35050;51.316;5.994;2023-06-22T02:44:31;3.60;;;2.85;;
49223;SDS011;35050;51.316;5.994;2023-06-22T02:46:57;4.18;;;2.92;;
49223;SDS011;35050;51.316;5.994;2023-06-22T02:49:23;3.20;;;2.78;;
49223;SDS011;35050;51.316;5.994;2023-06-22T02:51:49;4.70;;;3.28;;
49223;SDS011;35050;51.316;5.994;2023-06-22T02:54:15;3.47;;;3.17;;
49223;SDS011;35050;51.316;5.994;2023-06-22T02:56:41;3.47;;;3.10;;
49223;SDS011;35050;51.316;5.994;2023-06-22T02:59:10;3.33;;;3.03;;
49223;SDS011;35050;51.316;5.994;2023-06-22T03:01:36;4.10;;;3.70;;
49223;SDS011;35050;51.316;5.994;2023-06-22T03:04:08;3.72;;;3.33;;
49223;SDS011;35050;51.316;5.994;2023-06-22T03:06:34;4.40;;;3.15;;
49223;SDS011;35050;51.316;5.994;2023-06-22T03:09:01;4.38;;;3.70;;
49223;SDS011;35050;51.316;5.994;2023-06-22T03:11:29;4.43;;;3.15;;
49223;SDS011;35050;51.316;5.994;2023-06-22T03:13:56;3.72;;;3.42;;
49223;SDS011;35050;51.316;5.994;2023-06-22T03:16:21;4.65;;;3.70;;
49223;SDS011;35050;51.316;5.994;2023-06-22T03:18:47;4.70;;;3.15;;
49223;SDS011;35050;51.316;5.994;2023-06-22T03:21:12;4.72;;;3.45;;
49223;SDS011;35050;51.316;5.994;2023-06-22T03:23:40;3.28;;;2.97;;
49223;SDS011;35050;51.316;5.994;2023-06-22T03:26:09;5.05;;;3.72;;
49223;SDS011;35050;51.316;5.994;2023-06-22T03:28:35;3.30;;;2.95;;
49223;SDS011;35050;51.316;5.994;2023-06-22T03:31:01;4.82;;;3.28;;
49223;SDS011;35050;51.316;5.994;2023-06-22T03:33:28;3.90;;;3.60;;
49223;SDS011;35050;51.316;5.994;2023-06-22T03:35:54;3.72;;;3.40;;
49223;SDS011;35050;51.316;5.994;2023-06-22T03:38:20;3.95;;;3.60;;
49223;SDS011;35050;51.316;5.994;2023-06-22T03:40:46;3.13;;;2.92;;
49223;SDS011;35050;51.316;5.994;2023-06-22T03:43:11;4.05;;;3.13;;
49223;SDS011;35050;51.316;5.994;2023-06-22T03:45:37;4.03;;;3.22;;
49223;SDS011;35050;51.316;5.994;2023-06-22T03:48:03;3.88;;;3.50;;
49223;SDS011;35050;51.316;5.994;2023-06-22T03:50:28;3.75;;;3.38;;
49223;SDS011;35050;51.316;5.994;2023-06-22T03:52:55;4.93;;;3.47;;
49223;SDS011;35050;51.316;5.994;2023-06-22T03:55:21;4.22;;;3.70;;
49223;SDS011;35050;51.316;5.994;2023-06-22T03:57:46;3.22;;;2.92;;
49223;SDS011;35050;51.316;5.994;2023-06-22T04:00:12;3.50;;;3.20;;
49223;SDS011;35050;51.316;5.994;2023-06-22T04:02:38;3.80;;;3.33;;
49223;SDS011;35050;51.316;5.994;2023-06-22T04:05:04;3.65;;;3.00;;
49223;SDS011;35050;51.316;5.994;2023-06-22T04:07:30;4.18;;;3.75;;
49223;SDS011;35050;51.316;5.994;2023-06-22T04:09:56;3.08;;;2.80;;
49223;SDS011;35050;51.316;5.994;2023-06-22T04:12:22;4.25;;;3.80;;
49223;SDS011;35050;51.316;5.994;2023-06-22T04:14:47;3.80;;;3.08;;
49223;SDS011;35050;51.316;5.994;2023-06-22T04:17:13;3.72;;;3.00;;
49223;SDS011;35050;51.316;5.994;2023-06-22T04:19:42;3.67;;;3.17;;
49223;SDS011;35050;51.316;5.994;2023-06-22T04:22:08;3.47;;;3.17;;
49223;SDS011;35050;51.316;5.994;2023-06-22T04:24:35;5.18;;;3.97;;
49223;SDS011;35050;51.316;5.994;2023-06-22T04:27:01;4.60;;;3.83;;
49223;SDS011;35050;51.316;5.994;2023-06-22T04:29:29;3.92;;;3.50;;
49223;SDS011;35050;51.316;5.994;2023-06-22T04:31:55;3.92;;;3.63;;
49223;SDS011;35050;51.316;5.994;2023-06-22T04:34:23;4.55;;;4.03;;
49223;SDS011;35050;51.316;5.994;2023-06-22T04:36:51;5.65;;;4.82;;
49223;SDS011;35050;51.316;5.994;2023-06-22T04:39:17;5.93;;;4.35;;
49223;SDS011;35050;51.316;5.994;2023-06-22T04:41:44;4.10;;;3.72;;
49223;SDS011;35050;51.316;5.994;2023-06-22T04:46:49;5.38;;;4.00;;
49223;SDS011;35050;51.316;5.994;2023-06-22T04:49:19;3.58;;;3.25;;
49223;SDS011;35050;51.316;5.994;2023-06-22T04:51:45;3.40;;;3.10;;
49223;SDS011;35050;51.316;5.994;2023-06-22T04:54:11;3.50;;;3.20;;
49223;SDS011;35050;51.316;5.994;2023-06-22T04:56:37;3.88;;;3.33;;
49223;SDS011;35050;51.316;5.994;2023-06-22T04:59:06;3.42;;;3.13;;
49223;SDS011;35050;51.316;5.994;2023-06-22T05:01:32;4.75;;;3.30;;
49223;SDS011;35050;51.316;5.994;2023-06-22T05:03:59;4.28;;;3.88;;
49223;SDS011;35050;51.316;5.994;2023-06-22T05:06:26;4.30;;;3.88;;
49223;SDS011;35050;51.316;5.994;2023-06-22T05:08:56;4.47;;;3.80;;
49223;SDS011;35050;51.316;5.994;2023-06-22T05:11:25;4.43;;;3.90;;
49223;SDS011;35050;51.316;5.994;2023-06-22T05:13:52;6.22;;;4.57;;
49223;SDS011;35050;51.316;5.994;2023-06-22T05:16:18;3.63;;;3.33;;
49223;SDS011;35050;51.316;5.994;2023-06-22T05:18:48;4.00;;;3.60;;
49223;SDS011;35050;51.316;5.994;2023-06-22T05:21:18;4.38;;;3.90;;
49223;SDS011;35050;51.316;5.994;2023-06-22T05:23:48;4.20;;;3.80;;
49223;SDS011;35050;51.316;5.994;2023-06-22T05:26:13;3.63;;;3.33;;
49223;SDS011;35050;51.316;5.994;2023-06-22T05:28:39;3.78;;;3.15;;
49223;SDS011;35050;51.316;5.994;2023-06-22T05:31:05;3.65;;;2.90;;
49223;SDS011;35050;51.316;5.994;2023-06-22T05:33:30;3.70;;;3.08;;
49223;SDS011;35050;51.316;5.994;2023-06-22T05:35:56;4.00;;;3.60;;
49223;SDS011;35050;51.316;5.994;2023-06-22T05:38:22;4.88;;;4.38;;
49223;SDS011;35050;51.316;5.994;2023-06-22T05:40:47;4.80;;;3.78;;
49223;SDS011;35050;51.316;5.994;2023-06-22T05:43:13;5.00;;;3.92;;
49223;SDS011;35050;51.316;5.994;2023-06-22T05:45:38;3.75;;;3.30;;
49223;SDS011;35050;51.316;5.994;2023-06-22T05:48:04;4.55;;;3.55;;
49223;SDS011;35050;51.316;5.994;2023-06-22T05:50:30;3.80;;;3.42;;
49223;SDS011;35050;51.316;5.994;2023-06-22T05:52:56;3.63;;;3.33;;
49223;SDS011;35050;51.316;5.994;2023-06-22T05:55:22;3.22;;;2.92;;
49223;SDS011;35050;51.316;5.994;2023-06-22T05:57:47;3.50;;;3.20;;
49223;SDS011;35050;51.316;5.994;2023-06-22T06:00:13;3.55;;;3.10;;
49223;SDS011;35050;51.316;5.994;2023-06-22T06:02:40;3.38;;;3.08;;
49223;SDS011;35050;51.316;5.994;2023-06-22T06:05:12;3.65;;;3.17;;
49223;SDS011;35050;51.316;5.994;2023-06-22T06:07:43;11.93;;;4.10;;
49223;SDS011;35050;51.316;5.994;2023-06-22T06:10:09;3.88;;;2.88;;
49223;SDS011;35050;51.316;5.994;2023-06-22T06:12:35;3.65;;;3.30;;
49223;SDS011;35050;51.316;5.994;2023-06-22T06:15:01;5.28;;;3.35;;
49223;SDS011;35050;51.316;5.994;2023-06-22T06:17:27;6.03;;;3.45;;
49223;SDS011;35050;51.316;5.994;2023-06-22T06:19:53;3.25;;;2.95;;
49223;SDS011;35050;51.316;5.994;2023-06-22T06:22:19;3.00;;;2.72;;
49223;SDS011;35050;51.316;5.994;2023-06-22T06:24:46;4.43;;;3.25;;
49223;SDS011;35050;51.316;5.994;2023-06-22T06:27:12;3.30;;;3.00;;
49223;SDS011;35050;51.316;5.994;2023-06-22T06:29:38;4.45;;;4.05;;
49223;SDS011;35050;51.316;5.994;2023-06-22T06:32:04;3.75;;;3.45;;
49223;SDS011;35050;51.316;5.994;2023-06-22T06:34:30;4.82;;;4.43;;
49223;SDS011;35050;51.316;5.994;2023-06-22T06:36:56;4.47;;;3.75;;
49223;SDS011;35050;51.316;5.994;2023-06-22T06:39:21;5.97;;;4.65;;
49223;SDS011;35050;51.316;5.994;2023-06-22T06:41:47;5.95;;;4.68;;
49223;SDS011;35050;51.316;5.994;2023-06-22T06:44:12;5.28;;;4.18;;
49223;SDS011;35050;51.316;5.994;2023-06-22T06:46:38;7.20;;;4.43;;
49223;SDS011;35050;51.316;5.994;2023-06-22T06:49:04;4.88;;;4.00;;
49223;SDS011;35050;51.316;5.994;2023-06-22T06:51:30;4.30;;;3.88;;
49223;SDS011;35050;51.316;5.994;2023-06-22T06:53:55;4.65;;;3.80;;
49223;SDS011;35050;51.316;5.994;2023-06-22T06:56:21;5.47;;;4.10;;
49223;SDS011;35050;51.316;5.994;2023-06-22T06:58:49;4.05;;;3.65;;
49223;SDS011;35050;51.316;5.994;2023-06-22T07:01:16;9.70;;;4.65;;
49223;SDS011;35050;51.316;5.994;2023-06-22T07:03:41;4.15;;;3.58;;
49223;SDS011;35050;51.316;5.994;2023-06-22T07:06:08;4.68;;;4.00;;
49223;SDS011;35050;51.316;5.994;2023-06-22T07:08:34;5.07;;;4.57;;
49223;SDS011;35050;51.316;5.994;2023-06-22T07:11:01;4.63;;;3.15;;
49223;SDS011;35050;51.316;5.994;2023-06-22T07:13:27;3.13;;;2.80;;
49223;SDS011;35050;51.316;5.994;2023-06-22T07:15:53;4.10;;;3.80;;
49223;SDS011;35050;51.316;5.994;2023-06-22T07:18:18;5.82;;;5.03;;
49223;SDS011;35050;51.316;5.994;2023-06-22T07:20:44;4.25;;;3.85;;
49223;SDS011;35050;51.316;5.994;2023-06-22T07:23:09;3.95;;;3.55;;
49223;SDS011;35050;51.316;5.994;2023-06-22T07:25:35;4.90;;;4.50;;
49223;SDS011;35050;51.316;5.994;2023-06-22T07:28:02;5.10;;;3.95;;
49223;SDS011;35050;51.316;5.994;2023-06-22T07:30:29;6.07;;;4.22;;
49223;SDS011;35050;51.316;5.994;2023-06-22T07:32:56;8.18;;;5.22;;
49223;SDS011;35050;51.316;5.994;2023-06-22T07:35:23;4.82;;;3.65;;
49223;SDS011;35050;51.316;5.994;2023-06-22T07:37:49;5.10;;;4.60;;
49223;SDS011;35050;51.316;5.994;2023-06-22T07:40:14;4.75;;;4.32;;
49223;SDS011;35050;51.316;5.994;2023-06-22T07:42:40;6.13;;;5.32;;
49223;SDS011;35050;51.316;5.994;2023-06-22T07:45:06;5.70;;;5.13;;
49223;SDS011;35050;51.316;5.994;2023-06-22T07:47:35;5.85;;;4.80;;
49223;SDS011;35050;51.316;5.994;2023-06-22T07:50:01;6.10;;;5.50;;
49223;SDS011;35050;51.316;5.994;2023-06-22T07:52:28;5.72;;;5.05;;
49223;SDS011;35050;51.316;5.994;2023-06-22T07:54:54;7.65;;;5.55;;
49223;SDS011;35050;51.316;5.994;2023-06-22T07:57:20;7.10;;;6.40;;
49223;SDS011;35050;51.316;5.994;2023-06-22T07:59:46;7.03;;;5.28;;
49223;SDS011;35050;51.316;5.994;2023-06-22T08:02:11;5.40;;;4.90;;
49223;SDS011;35050;51.316;5.994;2023-06-22T08:04:38;5.97;;;5.47;;
49223;SDS011;35050;51.316;5.994;2023-06-22T08:07:04;4.70;;;4.25;;
49223;SDS011;35050;51.316;5.994;2023-06-22T08:09:31;4.57;;;3.95;;
49223;SDS011;35050;51.316;5.994;2023-06-22T08:11:57;5.97;;;4.22;;
49223;SDS011;35050;51.316;5.994;2023-06-22T08:14:25;5.50;;;5.00;;
49223;SDS011;35050;51.316;5.994;2023-06-22T08:16:51;4.95;;;4.55;;
49223;SDS011;35050;51.316;5.994;2023-06-22T08:19:16;5.70;;;4.35;;
49223;SDS011;35050;51.316;5.994;2023-06-22T08:21:42;7.20;;;5.53;;
49223;SDS011;35050;51.316;5.994;2023-06-22T08:24:08;4.53;;;4.13;;
49223;SDS011;35050;51.316;5.994;2023-06-22T08:26:34;5.80;;;4.18;;
49223;SDS011;35050;51.316;5.994;2023-06-22T08:29:02;5.78;;;5.18;;
49223;SDS011;35050;51.316;5.994;2023-06-22T08:31:28;5.43;;;4.82;;
49223;SDS011;35050;51.316;5.994;2023-06-22T08:33:54;6.43;;;5.40;;
49223;SDS011;35050;51.316;5.994;2023-06-22T08:36:20;5.22;;;4.72;;
49223;SDS011;35050;51.316;5.994;2023-06-22T08:38:45;11.23;;;6.90;;
49223;SDS011;35050;51.316;5.994;2023-06-22T08:41:15;20.92;;;11.30;;
49223;SDS011;35050;51.316;5.994;2023-06-22T08:43:41;23.33;;;12.25;;
49223;SDS011;35050;51.316;5.994;2023-06-22T08:46:08;21.13;;;12.10;;
49223;SDS011;35050;51.316;5.994;2023-06-22T08:48:33;25.00;;;14.75;;
49223;SDS011;35050;51.316;5.994;2023-06-22T08:50:59;30.67;;;15.70;;
49223;SDS011;35050;51.316;5.994;2023-06-22T08:53:25;31.13;;;16.98;;
49223;SDS011;35050;51.316;5.994;2023-06-22T08:55:50;26.65;;;13.85;;
49223;SDS011;35050;51.316;5.994;2023-06-22T08:58:16;18.65;;;10.77;;
49223;SDS011;35050;51.316;5.994;2023-06-22T09:00:43;14.75;;;9.25;;
49223;SDS011;35050;51.316;5.994;2023-06-22T09:03:08;13.38;;;8.15;;
49223;SDS011;35050;51.316;5.994;2023-06-22T09:05:34;11.23;;;7.80;;
49223;SDS011;35050;51.316;5.994;2023-06-22T09:08:00;10.50;;;7.82;;
49223;SDS011;35050;51.316;5.994;2023-06-22T09:10:25;9.60;;;7.28;;
49223;SDS011;35050;51.316;5.994;2023-06-22T09:12:51;9.60;;;7.50;;
49223;SDS011;35050;51.316;5.994;2023-06-22T09:15:17;11.13;;;7.45;;
49223;SDS011;35050;51.316;5.994;2023-06-22T09:17:43;11.82;;;8.20;;
49223;SDS011;35050;51.316;5.994;2023-06-22T09:20:09;13.45;;;8.20;;
49223;SDS011;35050;51.316;5.994;2023-06-22T09:22:36;11.98;;;8.43;;
49223;SDS011;35050;51.316;5.994;2023-06-22T09:25:01;10.48;;;7.50;;
49223;SDS011;35050;51.316;5.994;2023-06-22T09:27:28;8.65;;;6.78;;
49223;SDS011;35050;51.316;5.994;2023-06-22T09:29:54;9.93;;;5.40;;
49223;SDS011;35050;51.316;5.994;2023-06-22T09:32:19;7.75;;;5.22;;
49223;SDS011;35050;51.316;5.994;2023-06-22T09:34:45;5.45;;;4.95;;
49223;SDS011;35050;51.316;5.994;2023-06-22T09:37:12;7.25;;;5.57;;
49223;SDS011;35050;51.316;5.994;2023-06-22T09:39:37;8.27;;;6.10;;
49223;SDS011;35050;51.316;5.994;2023-06-22T09:42:03;8.20;;;6.50;;
49223;SDS011;35050;51.316;5.994;2023-06-22T09:44:30;7.40;;;5.80;;
49223;SDS011;35050;51.316;5.994;2023-06-22T09:46:56;6.15;;;5.00;;
49223;SDS011;35050;51.316;5.994;2023-06-22T09:49:22;6.60;;;5.28;;
49223;SDS011;35050;51.316;5.994;2023-06-22T09:51:47;8.77;;;6.28;;
49223;SDS011;35050;51.316;5.994;2023-06-22T09:54:14;7.50;;;5.85;;
49223;SDS011;35050;51.316;5.994;2023-06-22T09:56:40;5.30;;;4.72;;
49223;SDS011;35050;51.316;5.994;2023-06-22T09:59:06;6.47;;;5.18;;
49223;SDS011;35050;51.316;5.994;2023-06-22T10:01:31;7.28;;;6.50;;
49223;SDS011;35050;51.316;5.994;2023-06-22T10:03:57;10.13;;;6.80;;
49223;SDS011;35050;51.316;5.994;2023-06-22T10:06:23;8.20;;;5.65;;
49223;SDS011;35050;51.316;5.994;2023-06-22T10:08:50;6.25;;;5.57;;
49223;SDS011;35050;51.316;5.994;2023-06-22T10:11:16;8.55;;;6.80;;
49223;SDS011;35050;51.316;5.994;2023-06-22T10:13:42;7.35;;;5.95;;
49223;SDS011;35050;51.316;5.994;2023-06-22T10:16:08;8.23;;;6.75;;
49223;SDS011;35050;51.316;5.994;2023-06-22T10:18:33;6.93;;;5.45;;
49223;SDS011;35050;51.316;5.994;2023-06-22T10:20:59;5.70;;;5.20;;
49223;SDS011;35050;51.316;5.994;2023-06-22T10:23:25;6.95;;;6.07;;
49223;SDS011;35050;51.316;5.994;2023-06-22T10:25:50;6.40;;;5.20;;
49223;SDS011;35050;51.316;5.994;2023-06-22T10:28:16;6.43;;;5.78;;
49223;SDS011;35050;51.316;5.994;2023-06-22T10:30:42;6.20;;;5.60;;
49223;SDS011;35050;51.316;5.994;2023-06-22T10:33:11;6.30;;;5.20;;
49223;SDS011;35050;51.316;5.994;2023-06-22T10:35:37;6.53;;;5.40;;
49223;SDS011;35050;51.316;5.994;2023-06-22T10:38:04;5.85;;;4.88;;
49223;SDS011;35050;51.316;5.994;2023-06-22T10:40:30;7.35;;;5.88;;
49223;SDS011;35050;51.316;5.994;2023-06-22T10:42:55;7.57;;;5.40;;
49223;SDS011;35050;51.316;5.994;2023-06-22T10:45:21;6.00;;;5.40;;
49223;SDS011;35050;51.316;5.994;2023-06-22T10:47:47;8.15;;;6.65;;
49223;SDS011;35050;51.316;5.994;2023-06-22T10:50:12;5.47;;;4.97;;
49223;SDS011;35050;51.316;5.994;2023-06-22T10:52:38;6.03;;;5.43;;
49223;SDS011;35050;51.316;5.994;2023-06-22T10:55:04;5.32;;;4.82;;
49223;SDS011;35050;51.316;5.994;2023-06-22T10:57:30;5.72;;;4.80;;
49223;SDS011;35050;51.316;5.994;2023-06-22T10:59:56;6.53;;;5.22;;
49223;SDS011;35050;51.316;5.994;2023-06-22T11:02:23;5.22;;;4.72;;
49223;SDS011;35050;51.316;5.994;2023-06-22T11:04:49;3.95;;;3.58;;
49223;SDS011;35050;51.316;5.994;2023-06-22T11:07:15;5.10;;;4.57;;
49223;SDS011;35050;51.316;5.994;2023-06-22T11:09:42;4.93;;;4.47;;
49223;SDS011;35050;51.316;5.994;2023-06-22T11:12:08;5.00;;;4.50;;
49223;SDS011;35050;51.316;5.994;2023-06-22T11:14:34;5.57;;;4.93;;
49223;SDS011;35050;51.316;5.994;2023-06-22T11:17:00;5.78;;;4.53;;
49223;SDS011;35050;51.316;5.994;2023-06-22T11:19:25;6.43;;;4.38;;
49223;SDS011;35050;51.316;5.994;2023-06-22T11:21:51;5.00;;;4.50;;
49223;SDS011;35050;51.316;5.994;2023-06-22T11:24:17;5.68;;;5.18;;
49223;SDS011;35050;51.316;5.994;2023-06-22T11:26:43;5.90;;;5.30;;
49223;SDS011;35050;51.316;5.994;2023-06-22T11:29:08;5.57;;;5.07;;
49223;SDS011;35050;51.316;5.994;2023-06-22T11:31:34;6.20;;;5.60;;
49223;SDS011;35050;51.316;5.994;2023-06-22T11:34:00;6.68;;;6.07;;
49223;SDS011;35050;51.316;5.994;2023-06-22T11:36:26;7.30;;;6.60;;
49223;SDS011;35050;51.316;5.994;2023-06-22T11:38:52;6.70;;;5.68;;
49223;SDS011;35050;51.316;5.994;2023-06-22T11:41:18;6.85;;;5.20;;
49223;SDS011;35050;51.316;5.994;2023-06-22T11:43:44;6.22;;;5.63;;
49223;SDS011;35050;51.316;5.994;2023-06-22T11:46:09;7.38;;;6.68;;
49223;SDS011;35050;51.316;5.994;2023-06-22T11:48:35;8.73;;;7.90;;
49223;SDS011;35050;51.316;5.994;2023-06-22T11:51:01;9.13;;;7.50;;
49223;SDS011;35050;51.316;5.994;2023-06-22T11:53:28;7.68;;;6.97;;
49223;SDS011;35050;51.316;5.994;2023-06-22T11:55:54;8.02;;;6.45;;
49223;SDS011;35050;51.316;5.994;2023-06-22T11:58:20;6.85;;;6.15;;
49223;SDS011;35050;51.316;5.994;2023-06-22T12:00:46;9.57;;;8.57;;
49223;SDS011;35050;51.316;5.994;2023-06-22T12:03:11;7.97;;;7.10;;
49223;SDS011;35050;51.316;5.994;2023-06-22T12:05:38;8.43;;;7.30;;
49223;SDS011;35050;51.316;5.994;2023-06-22T12:08:03;7.72;;;6.95;;
49223;SDS011;35050;51.316;5.994;2023-06-22T12:10:29;9.13;;;8.23;;
49223;SDS011;35050;51.316;5.994;2023-06-22T12:12:55;11.48;;;10.27;;
49223;SDS011;35050;51.316;5.994;2023-06-22T12:15:22;10.18;;;9.07;;
49223;SDS011;35050;51.316;5.994;2023-06-22T12:17:48;11.25;;;10.05;;
49223;SDS011;35050;51.316;5.994;2023-06-22T12:20:14;9.30;;;8.30;;
49223;SDS011;35050;51.316;5.994;2023-06-22T12:22:40;10.82;;;9.73;;
49223;SDS011;35050;51.316;5.994;2023-06-22T12:25:06;7.47;;;6.78;;
49223;SDS011;35050;51.316;5.994;2023-06-22T12:27:33;8.75;;;7.82;;
49223;SDS011;35050;51.316;5.994;2023-06-22T12:29:59;8.85;;;7.97;;
49223;SDS011;35050;51.316;5.994;2023-06-22T12:32:25;9.15;;;8.25;;
49223;SDS011;35050;51.316;5.994;2023-06-22T12:34:51;8.13;;;7.32;;
49223;SDS011;35050;51.316;5.994;2023-06-22T12:37:17;10.10;;;7.20;;
49223;SDS011;35050;51.316;5.994;2023-06-22T12:39:42;7.82;;;7.13;;
49223;SDS011;35050;51.316;5.994;2023-06-22T12:42:08;7.68;;;6.90;;
49223;SDS011;35050;51.316;5.994;2023-06-22T12:44:38;8.48;;;7.60;;
49223;SDS011;35050;51.316;5.994;2023-06-22T12:47:04;9.60;;;8.70;;
49223;SDS011;35050;51.316;5.994;2023-06-22T12:49:30;10.70;;;9.70;;
49223;SDS011;35050;51.316;5.994;2023-06-22T12:51:56;11.52;;;10.35;;
49223;SDS011;35050;51.316;5.994;2023-06-22T12:54:22;12.63;;;11.23;;
49223;SDS011;35050;51.316;5.994;2023-06-22T12:56:47;14.88;;;12.82;;
49223;SDS011;35050;51.316;5.994;2023-06-22T12:59:14;12.00;;;10.07;;
49223;SDS011;35050;51.316;5.994;2023-06-22T13:01:42;10.45;;;9.45;;
49223;SDS011;35050;51.316;5.994;2023-06-22T13:04:08;9.15;;;8.25;;
49223;SDS011;35050;51.316;5.994;2023-06-22T13:06:36;8.45;;;7.45;;
49223;SDS011;35050;51.316;5.994;2023-06-22T13:09:01;9.75;;;8.73;;
49223;SDS011;35050;51.316;5.994;2023-06-22T13:11:30;8.88;;;7.70;;
49223;SDS011;35050;51.316;5.994;2023-06-22T13:13:55;10.73;;;9.73;;
49223;SDS011;35050;51.316;5.994;2023-06-22T13:16:21;9.18;;;8.30;;
49223;SDS011;35050;51.316;5.994;2023-06-22T13:18:46;6.97;;;6.28;;
49223;SDS011;35050;51.316;5.994;2023-06-22T13:21:12;8.32;;;7.53;;
49223;SDS011;35050;51.316;5.994;2023-06-22T13:23:39;10.30;;;9.25;;
49223;SDS011;35050;51.316;5.994;2023-06-22T13:26:04;7.97;;;7.18;;
49223;SDS011;35050;51.316;5.994;2023-06-22T13:28:30;9.30;;;7.68;;
49223;SDS011;35050;51.316;5.994;2023-06-22T13:30:56;10.52;;;9.55;;
49223;SDS011;35050;51.316;5.994;2023-06-22T13:33:21;9.02;;;6.97;;
49223;SDS011;35050;51.316;5.994;2023-06-22T13:35:47;10.32;;;8.00;;
49223;SDS011;35050;51.316;5.994;2023-06-22T13:38:12;6.55;;;5.85;;
49223;SDS011;35050;51.316;5.994;2023-06-22T13:40:38;6.60;;;6.00;;
49223;SDS011;35050;51.316;5.994;2023-06-22T13:43:04;7.30;;;6.60;;
49223;SDS011;35050;51.316;5.994;2023-06-22T13:45:30;10.27;;;9.10;;
49223;SDS011;35050;51.316;5.994;2023-06-22T13:47:56;7.90;;;7.10;;
49223;SDS011;35050;51.316;5.994;2023-06-22T13:50:22;6.53;;;5.93;;
49223;SDS011;35050;51.316;5.994;2023-06-22T13:52:48;6.75;;;6.10;;
49223;SDS011;35050;51.316;5.994;2023-06-22T13:55:13;9.55;;;8.52;;
49223;SDS011;35050;51.316;5.994;2023-06-22T13:57:39;7.47;;;6.78;;
49223;SDS011;35050;51.316;5.994;2023-06-22T14:00:06;6.35;;;5.72;;
49223;SDS011;35050;51.316;5.994;2023-06-22T14:02:37;7.97;;;7.18;;
49223;SDS011;35050;51.316;5.994;2023-06-22T14:05:03;9.35;;;7.43;;
49223;SDS011;35050;51.316;5.994;2023-06-22T14:07:28;9.82;;;8.57;;
49223;SDS011;35050;51.316;5.994;2023-06-22T14:09:54;9.02;;;8.13;;
49223;SDS011;35050;51.316;5.994;2023-06-22T14:12:20;9.50;;;8.60;;
49223;SDS011;35050;51.316;5.994;2023-06-22T14:14:45;8.85;;;7.13;;
49223;SDS011;35050;51.316;5.994;2023-06-22T14:17:11;6.82;;;6.13;;
49223;SDS011;35050;51.316;5.994;2023-06-22T14:19:37;9.18;;;7.32;;
49223;SDS011;35050;51.316;5.994;2023-06-22T14:22:02;6.45;;;5.88;;
49223;SDS011;35050;51.316;5.994;2023-06-22T14:24:28;7.75;;;7.05;;
49223;SDS011;35050;51.316;5.994;2023-06-22T14:26:54;7.43;;;6.28;;
49223;SDS011;35050;51.316;5.994;2023-06-22T14:29:20;7.22;;;6.53;;
49223;SDS011;35050;51.316;5.994;2023-06-22T14:31:47;7.15;;;6.47;;
49223;SDS011;35050;51.316;5.994;2023-06-22T14:34:13;8.90;;;8.00;;
49223;SDS011;35050;51.316;5.994;2023-06-22T14:36:40;8.38;;;7.57;;
49223;SDS011;35050;51.316;5.994;2023-06-22T14:39:06;10.20;;;9.20;;
49223;SDS011;35050;51.316;5.994;2023-06-22T14:41:32;9.93;;;8.93;;
49223;SDS011;35050;51.316;5.994;2023-06-22T14:43:57;10.88;;;9.88;;